Terminal Aerodrome Forecast
Issued by NWS Austin/San Antonio, TX

Home | Current Version | Previous Version | Text Only | Print | Product List | Glossary On
Versions: 1 2 3 4 5 6 7 8 9 10 11 12 13 14 15 16 17 18 19 20 21 22 23 24 25
506
FTUS44 KEWX 281340 AAA
TAFSAT
TAF AMD
KSAT 281340Z 2814/2918 17006KT P6SM BKN015 BKN025
     FM281600 15008KT P6SM BKN040
     FM290700 16005KT P6SM BKN012
     FM291000 16005KT P6SM BKN009
     FM291600 17008KT P6SM BKN020=

USA.gov is the U.S. government's official web portal to all federal, state and local government web resources and services.